sensor_id;sensor_type;location;lat;lon;timestamp;temperature;humidity
7530;DHT22;3806;52.270;10.544;2023-07-08T00:00:46;19.80;81.10
7530;DHT22;3806;52.270;10.544;2023-07-08T00:03:13;19.70;82.00
7530;DHT22;3806;52.270;10.544;2023-07-08T00:05:39;19.70;82.90
7530;DHT22;3806;52.270;10.544;2023-07-08T00:08:05;19.60;83.60
7530;DHT22;3806;52.270;10.544;2023-07-08T00:10:31;19.60;84.60
7530;DHT22;3806;52.270;10.544;2023-07-08T00:12:57;19.60;85.30
7530;DHT22;3806;52.270;10.544;2023-07-08T00:15:28;19.50;86.00
7530;DHT22;3806;52.270;10.544;2023-07-08T00:17:54;19.50;86.60
7530;DHT22;3806;52.270;10.544;2023-07-08T00:20:23;19.40;87.50
7530;DHT22;3806;52.270;10.544;2023-07-08T00:22:54;19.40;88.50
7530;DHT22;3806;52.270;10.544;2023-07-08T00:25:19;19.30;89.40
7530;DHT22;3806;52.270;10.544;2023-07-08T00:27:46;19.30;90.20
7530;DHT22;3806;52.270;10.544;2023-07-08T00:30:24;19.30;90.80
7530;DHT22;3806;52.270;10.544;2023-07-08T00:32:51;19.30;91.30
7530;DHT22;3806;52.270;10.544;2023-07-08T00:35:28;19.30;91.60
7530;DHT22;3806;52.270;10.544;2023-07-08T00:37:55;19.20;91.80
7530;DHT22;3806;52.270;10.544;2023-07-08T00:40:28;19.20;92.20
7530;DHT22;3806;52.270;10.544;2023-07-08T00:42:54;19.20;92.50
7530;DHT22;3806;52.270;10.544;2023-07-08T00:45:34;19.20;92.50
7530;DHT22;3806;52.270;10.544;2023-07-08T00:48:19;19.20;92.50
7530;DHT22;3806;52.270;10.544;2023-07-08T00:50:47;19.20;92.50
7530;DHT22;3806;52.270;10.544;2023-07-08T00:53:35;19.10;92.50
7530;DHT22;3806;52.270;10.544;2023-07-08T00:56:31;19.10;92.50
7530;DHT22;3806;52.270;10.544;2023-07-08T00:59:05;19.00;92.50
7530;DHT22;3806;52.270;10.544;2023-07-08T01:01:35;19.00;92.70
7530;DHT22;3806;52.270;10.544;2023-07-08T01:04:04;19.00;93.00
7530;DHT22;3806;52.270;10.544;2023-07-08T01:06:34;19.00;93.10
7530;DHT22;3806;52.270;10.544;2023-07-08T01:09:05;19.00;92.90
7530;DHT22;3806;52.270;10.544;2023-07-08T01:11:32;19.00;93.00
7530;DHT22;3806;52.270;10.544;2023-07-08T01:14:00;18.90;92.90
7530;DHT22;3806;52.270;10.544;2023-07-08T01:16:26;18.90;93.00
7530;DHT22;3806;52.270;10.544;2023-07-08T01:18:51;18.80;93.20
7530;DHT22;3806;52.270;10.544;2023-07-08T01:21:38;18.80;93.50
7530;DHT22;3806;52.270;10.544;2023-07-08T01:24:07;18.80;93.80
7530;DHT22;3806;52.270;10.544;2023-07-08T01:26:35;18.70;94.00
7530;DHT22;3806;52.270;10.544;2023-07-08T01:29:02;18.70;94.20
7530;DHT22;3806;52.270;10.544;2023-07-08T01:31:29;18.60;94.40
7530;DHT22;3806;52.270;10.544;2023-07-08T01:33:54;18.50;94.50
7530;DHT22;3806;52.270;10.544;2023-07-08T01:36:20;18.50;94.60
7530;DHT22;3806;52.270;10.544;2023-07-08T01:38:46;18.50;94.70
7530;DHT22;3806;52.270;10.544;2023-07-08T01:41:14;18.50;95.00
7530;DHT22;3806;52.270;10.544;2023-07-08T01:43:40;18.50;95.30
7530;DHT22;3806;52.270;10.544;2023-07-08T01:46:13;18.40;95.50
7530;DHT22;3806;52.270;10.544;2023-07-08T01:48:41;18.40;95.50
7530;DHT22;3806;52.270;10.544;2023-07-08T01:51:07;18.40;95.50
7530;DHT22;3806;52.270;10.544;2023-07-08T01:53:38;18.40;95.20
7530;DHT22;3806;52.270;10.544;2023-07-08T01:56:06;18.40;95.10
7530;DHT22;3806;52.270;10.544;2023-07-08T01:58:32;18.40;95.10
7530;DHT22;3806;52.270;10.544;2023-07-08T02:00:58;18.40;95.00
7530;DHT22;3806;52.270;10.544;2023-07-08T02:03:24;18.30;95.10
7530;DHT22;3806;52.270;10.544;2023-07-08T02:05:50;18.30;95.30
7530;DHT22;3806;52.270;10.544;2023-07-08T02:08:16;18.30;95.50
7530;DHT22;3806;52.270;10.544;2023-07-08T02:10:42;18.20;95.70
7530;DHT22;3806;52.270;10.544;2023-07-08T02:13:08;18.20;95.90
7530;DHT22;3806;52.270;10.544;2023-07-08T02:15:34;18.20;96.10
7530;DHT22;3806;52.270;10.544;2023-07-08T02:17:59;18.10;96.20
7530;DHT22;3806;52.270;10.544;2023-07-08T02:20:25;18.00;96.30
7530;DHT22;3806;52.270;10.544;2023-07-08T02:22:50;18.10;96.50
7530;DHT22;3806;52.270;10.544;2023-07-08T02:25:16;18.00;96.60
7530;DHT22;3806;52.270;10.544;2023-07-08T02:27:42;17.90;96.60
7530;DHT22;3806;52.270;10.544;2023-07-08T02:30:08;17.90;96.80
7530;DHT22;3806;52.270;10.544;2023-07-08T02:32:34;17.90;97.00
7530;DHT22;3806;52.270;10.544;2023-07-08T02:35:07;17.90;97.20
7530;DHT22;3806;52.270;10.544;2023-07-08T02:37:33;17.80;97.20
7530;DHT22;3806;52.270;10.544;2023-07-08T02:39:59;17.80;97.20
7530;DHT22;3806;52.270;10.544;2023-07-08T02:42:25;17.80;97.30
7530;DHT22;3806;52.270;10.544;2023-07-08T02:44:51;17.80;97.30
7530;DHT22;3806;52.270;10.544;2023-07-08T02:47:16;17.80;97.30
7530;DHT22;3806;52.270;10.544;2023-07-08T02:49:42;17.80;97.30
7530;DHT22;3806;52.270;10.544;2023-07-08T02:52:07;17.80;97.40
7530;DHT22;3806;52.270;10.544;2023-07-08T02:54:33;17.80;97.30
7530;DHT22;3806;52.270;10.544;2023-07-08T02:56:58;17.80;97.30
7530;DHT22;3806;52.270;10.544;2023-07-08T02:59:24;17.80;97.40
7530;DHT22;3806;52.270;10.544;2023-07-08T03:01:49;17.70;97.40
7530;DHT22;3806;52.270;10.544;2023-07-08T03:04:15;17.70;97.50
7530;DHT22;3806;52.270;10.544;2023-07-08T03:06:44;17.70;97.50
7530;DHT22;3806;52.270;10.544;2023-07-08T03:09:11;17.60;97.50
7530;DHT22;3806;52.270;10.544;2023-07-08T03:11:38;17.60;97.50
7530;DHT22;3806;52.270;10.544;2023-07-08T03:14:04;17.60;97.50
7530;DHT22;3806;52.270;10.544;2023-07-08T03:16:29;17.60;97.50
7530;DHT22;3806;52.270;10.544;2023-07-08T03:18:55;17.50;97.30
7530;DHT22;3806;52.270;10.544;2023-07-08T03:21:20;17.50;97.10
7530;DHT22;3806;52.270;10.544;2023-07-08T03:23:48;17.50;97.30
7530;DHT22;3806;52.270;10.544;2023-07-08T03:26:20;17.40;96.90
7530;DHT22;3806;52.270;10.544;2023-07-08T03:28:46;17.40;96.80
7530;DHT22;3806;52.270;10.544;2023-07-08T03:31:12;17.40;96.80
7530;DHT22;3806;52.270;10.544;2023-07-08T03:33:38;17.40;96.90
7530;DHT22;3806;52.270;10.544;2023-07-08T03:36:07;17.40;96.90
7530;DHT22;3806;52.270;10.544;2023-07-08T03:38:35;17.30;96.60
7530;DHT22;3806;52.270;10.544;2023-07-08T03:41:00;17.30;96.50
7530;DHT22;3806;52.270;10.544;2023-07-08T03:43:26;17.30;96.60
7530;DHT22;3806;52.270;10.544;2023-07-08T03:45:51;17.30;96.50
7530;DHT22;3806;52.270;10.544;2023-07-08T03:48:17;17.30;96.40
7530;DHT22;3806;52.270;10.544;2023-07-08T03:50:43;17.30;96.50
7530;DHT22;3806;52.270;10.544;2023-07-08T03:53:09;17.30;96.50
7530;DHT22;3806;52.270;10.544;2023-07-08T03:55:34;17.30;96.50
7530;DHT22;3806;52.270;10.544;2023-07-08T03:58:00;17.10;96.40
7530;DHT22;3806;52.270;10.544;2023-07-08T04:00:25;17.30;96.60
7530;DHT22;3806;52.270;10.544;2023-07-08T04:02:51;17.30;96.60
7530;DHT22;3806;52.270;10.544;2023-07-08T04:05:22;17.30;96.50
7530;DHT22;3806;52.270;10.544;2023-07-08T04:07:48;17.30;96.50
7530;DHT22;3806;52.270;10.544;2023-07-08T04:10:14;17.40;96.40
7530;DHT22;3806;52.270;10.544;2023-07-08T04:12:40;17.40;96.20
7530;DHT22;3806;52.270;10.544;2023-07-08T04:15:08;17.40;96.20
7530;DHT22;3806;52.270;10.544;2023-07-08T04:17:37;17.50;96.20
7530;DHT22;3806;52.270;10.544;2023-07-08T04:20:05;17.50;96.10
7530;DHT22;3806;52.270;10.544;2023-07-08T04:22:31;17.60;96.00
7530;DHT22;3806;52.270;10.544;2023-07-08T04:24:56;17.60;95.90
7530;DHT22;3806;52.270;10.544;2023-07-08T04:27:22;17.70;95.80
7530;DHT22;3806;52.270;10.544;2023-07-08T04:29:48;17.80;95.70
7530;DHT22;3806;52.270;10.544;2023-07-08T04:32:13;18.00;95.60
7530;DHT22;3806;52.270;10.544;2023-07-08T04:34:39;18.30;95.30
7530;DHT22;3806;52.270;10.544;2023-07-08T04:37:04;18.70;94.90
7530;DHT22;3806;52.270;10.544;2023-07-08T04:39:31;19.10;94.60
7530;DHT22;3806;52.270;10.544;2023-07-08T04:41:56;19.50;93.80
7530;DHT22;3806;52.270;10.544;2023-07-08T04:44:22;19.90;93.10
7530;DHT22;3806;52.270;10.544;2023-07-08T04:46:53;20.20;92.50
7530;DHT22;3806;52.270;10.544;2023-07-08T04:49:20;20.70;91.80
7530;DHT22;3806;52.270;10.544;2023-07-08T04:51:46;21.30;90.70
7530;DHT22;3806;52.270;10.544;2023-07-08T04:54:12;21.90;89.30
7530;DHT22;3806;52.270;10.544;2023-07-08T04:56:46;22.60;86.20
7530;DHT22;3806;52.270;10.544;2023-07-08T04:59:14;23.30;83.10
7530;DHT22;3806;52.270;10.544;2023-07-08T05:01:40;23.90;79.10
7530;DHT22;3806;52.270;10.544;2023-07-08T05:04:06;24.60;75.80
7530;DHT22;3806;52.270;10.544;2023-07-08T05:06:33;25.20;72.40
7530;DHT22;3806;52.270;10.544;2023-07-08T05:08:59;25.80;69.00
7530;DHT22;3806;52.270;10.544;2023-07-08T05:11:25;26.50;66.00
7530;DHT22;3806;52.270;10.544;2023-07-08T05:13:51;27.00;62.30
7530;DHT22;3806;52.270;10.544;2023-07-08T05:16:16;27.60;59.40
7530;DHT22;3806;52.270;10.544;2023-07-08T05:18:44;28.10;57.20
7530;DHT22;3806;52.270;10.544;2023-07-08T05:21:09;28.60;54.60
7530;DHT22;3806;52.270;10.544;2023-07-08T05:23:35;28.90;52.40
7530;DHT22;3806;52.270;10.544;2023-07-08T05:26:02;29.20;50.60
7530;DHT22;3806;52.270;10.544;2023-07-08T05:28:29;29.50;49.10
7530;DHT22;3806;52.270;10.544;2023-07-08T05:30:54;29.80;47.90
7530;DHT22;3806;52.270;10.544;2023-07-08T05:33:24;30.30;46.40
7530;DHT22;3806;52.270;10.544;2023-07-08T05:35:49;30.70;45.70
7530;DHT22;3806;52.270;10.544;2023-07-08T05:38:15;31.20;44.30
7530;DHT22;3806;52.270;10.544;2023-07-08T05:40:40;31.60;43.10
7530;DHT22;3806;52.270;10.544;2023-07-08T05:43:06;32.20;42.30
7530;DHT22;3806;52.270;10.544;2023-07-08T05:45:32;32.60;40.50
7530;DHT22;3806;52.270;10.544;2023-07-08T05:47:58;33.00;40.00
7530;DHT22;3806;52.270;10.544;2023-07-08T05:50:23;33.50;38.90
7530;DHT22;3806;52.270;10.544;2023-07-08T05:52:49;34.00;37.80
7530;DHT22;3806;52.270;10.544;2023-07-08T05:55:14;34.40;36.70
7530;DHT22;3806;52.270;10.544;2023-07-08T05:57:40;34.70;36.10
7530;DHT22;3806;52.270;10.544;2023-07-08T06:00:06;35.10;35.10
7530;DHT22;3806;52.270;10.544;2023-07-08T06:02:32;35.50;34.10
7530;DHT22;3806;52.270;10.544;2023-07-08T06:04:58;35.90;33.20
7530;DHT22;3806;52.270;10.544;2023-07-08T06:07:23;36.10;32.20
7530;DHT22;3806;52.270;10.544;2023-07-08T06:09:49;36.30;32.20
7530;DHT22;3806;52.270;10.544;2023-07-08T06:12:14;36.60;31.70
7530;DHT22;3806;52.270;10.544;2023-07-08T06:14:40;36.80;31.30
7530;DHT22;3806;52.270;10.544;2023-07-08T06:17:06;37.20;31.80
7530;DHT22;3806;52.270;10.544;2023-07-08T06:19:32;37.70;30.90
7530;DHT22;3806;52.270;10.544;2023-07-08T06:21:58;38.00;30.10
7530;DHT22;3806;52.270;10.544;2023-07-08T06:24:23;38.30;29.70
7530;DHT22;3806;52.270;10.544;2023-07-08T06:26:49;38.40;29.50
7530;DHT22;3806;52.270;10.544;2023-07-08T06:29:15;38.20;29.60
7530;DHT22;3806;52.270;10.544;2023-07-08T06:31:41;37.70;29.80
7530;DHT22;3806;52.270;10.544;2023-07-08T06:34:07;37.00;30.00
7530;DHT22;3806;52.270;10.544;2023-07-08T06:36:33;36.00;30.90
7530;DHT22;3806;52.270;10.544;2023-07-08T06:38:58;35.30;32.00
7530;DHT22;3806;52.270;10.544;2023-07-08T06:41:24;34.70;33.00
7530;DHT22;3806;52.270;10.544;2023-07-08T06:43:49;34.30;33.70
7530;DHT22;3806;52.270;10.544;2023-07-08T06:46:15;34.00;33.90
7530;DHT22;3806;52.270;10.544;2023-07-08T06:48:41;33.50;34.40
7530;DHT22;3806;52.270;10.544;2023-07-08T06:51:07;33.00;34.90
7530;DHT22;3806;52.270;10.544;2023-07-08T06:53:32;32.50;35.70
7530;DHT22;3806;52.270;10.544;2023-07-08T06:55:58;32.10;36.60
7530;DHT22;3806;52.270;10.544;2023-07-08T06:58:24;31.70;37.40
7530;DHT22;3806;52.270;10.544;2023-07-08T07:00:50;31.60;38.10
7530;DHT22;3806;52.270;10.544;2023-07-08T07:03:15;31.60;38.50
7530;DHT22;3806;52.270;10.544;2023-07-08T07:05:42;31.60;38.70
7530;DHT22;3806;52.270;10.544;2023-07-08T07:08:08;31.60;38.70
7530;DHT22;3806;52.270;10.544;2023-07-08T07:10:34;31.50;38.50
7530;DHT22;3806;52.270;10.544;2023-07-08T07:12:59;31.40;38.90
7530;DHT22;3806;52.270;10.544;2023-07-08T07:15:25;31.30;39.00
7530;DHT22;3806;52.270;10.544;2023-07-08T07:17:51;31.30;39.70
7530;DHT22;3806;52.270;10.544;2023-07-08T07:20:16;31.30;40.30
7530;DHT22;3806;52.270;10.544;2023-07-08T07:22:42;31.30;39.70
7530;DHT22;3806;52.270;10.544;2023-07-08T07:25:08;31.30;40.00
7530;DHT22;3806;52.270;10.544;2023-07-08T07:27:33;31.40;40.40
7530;DHT22;3806;52.270;10.544;2023-07-08T07:29:58;31.50;40.40
7530;DHT22;3806;52.270;10.544;2023-07-08T07:32:25;31.60;40.30
7530;DHT22;3806;52.270;10.544;2023-07-08T07:34:51;31.60;39.20
7530;DHT22;3806;52.270;10.544;2023-07-08T07:37:20;31.60;39.00
7530;DHT22;3806;52.270;10.544;2023-07-08T07:39:46;31.60;39.20
7530;DHT22;3806;52.270;10.544;2023-07-08T07:42:13;31.60;39.70
7530;DHT22;3806;52.270;10.544;2023-07-08T07:44:39;31.70;39.80
7530;DHT22;3806;52.270;10.544;2023-07-08T07:47:05;31.80;39.40
7530;DHT22;3806;52.270;10.544;2023-07-08T07:49:31;31.80;39.70
7530;DHT22;3806;52.270;10.544;2023-07-08T07:51:56;31.80;39.90
7530;DHT22;3806;52.270;10.544;2023-07-08T07:54:22;31.90;40.10
7530;DHT22;3806;52.270;10.544;2023-07-08T07:56:48;31.90;39.70
7530;DHT22;3806;52.270;10.544;2023-07-08T07:59:13;32.00;40.00
7530;DHT22;3806;52.270;10.544;2023-07-08T08:01:39;32.00;39.70
7530;DHT22;3806;52.270;10.544;2023-07-08T08:04:07;32.00;39.30
7530;DHT22;3806;52.270;10.544;2023-07-08T08:06:33;32.00;39.80
7530;DHT22;3806;52.270;10.544;2023-07-08T08:08:59;32.00;39.40
7530;DHT22;3806;52.270;10.544;2023-07-08T08:11:25;32.00;39.40
7530;DHT22;3806;52.270;10.544;2023-07-08T08:13:51;32.00;40.00
7530;DHT22;3806;52.270;10.544;2023-07-08T08:16:17;32.00;40.20
7530;DHT22;3806;52.270;10.544;2023-07-08T08:18:42;32.10;40.60
7530;DHT22;3806;52.270;10.544;2023-07-08T08:21:08;32.10;39.70
7530;DHT22;3806;52.270;10.544;2023-07-08T08:23:33;32.00;39.30
7530;DHT22;3806;52.270;10.544;2023-07-08T08:25:59;32.10;40.10
7530;DHT22;3806;52.270;10.544;2023-07-08T08:28:24;32.10;40.50
7530;DHT22;3806;52.270;10.544;2023-07-08T08:30:50;32.20;39.60
7530;DHT22;3806;52.270;10.544;2023-07-08T08:33:17;32.20;39.30
7530;DHT22;3806;52.270;10.544;2023-07-08T08:35:43;32.20;39.40
7530;DHT22;3806;52.270;10.544;2023-07-08T08:38:09;32.20;39.40
7530;DHT22;3806;52.270;10.544;2023-07-08T08:40:35;32.20;39.00
7530;DHT22;3806;52.270;10.544;2023-07-08T08:43:02;32.20;39.30
7530;DHT22;3806;52.270;10.544;2023-07-08T08:45:34;32.40;39.90
7530;DHT22;3806;52.270;10.544;2023-07-08T08:48:05;32.60;40.20
7530;DHT22;3806;52.270;10.544;2023-07-08T08:50:55;32.80;40.20
7530;DHT22;3806;52.270;10.544;2023-07-08T08:53:22;33.10;39.40
7530;DHT22;3806;52.270;10.544;2023-07-08T08:56:28;33.30;38.60
7530;DHT22;3806;52.270;10.544;2023-07-08T08:59:11;33.40;38.20
7530;DHT22;3806;52.270;10.544;2023-07-08T09:01:41;33.40;37.60
7530;DHT22;3806;52.270;10.544;2023-07-08T09:04:17;33.50;37.80
7530;DHT22;3806;52.270;10.544;2023-07-08T09:06:45;33.50;37.80
7530;DHT22;3806;52.270;10.544;2023-07-08T09:09:26;33.50;37.60
7530;DHT22;3806;52.270;10.544;2023-07-08T09:12:04;33.60;37.30
7530;DHT22;3806;52.270;10.544;2023-07-08T09:14:31;33.80;37.40
7530;DHT22;3806;52.270;10.544;2023-07-08T09:17:24;34.00;37.30
7530;DHT22;3806;52.270;10.544;2023-07-08T09:22:56;34.40;35.70
7530;DHT22;3806;52.270;10.544;2023-07-08T09:25:41;34.40;36.30
7530;DHT22;3806;52.270;10.544;2023-07-08T09:28:08;34.50;37.00
7530;DHT22;3806;52.270;10.544;2023-07-08T09:30:34;34.60;36.30
7530;DHT22;3806;52.270;10.544;2023-07-08T09:33:04;34.60;35.90
7530;DHT22;3806;52.270;10.544;2023-07-08T09:35:39;34.70;35.50
7530;DHT22;3806;52.270;10.544;2023-07-08T09:38:16;34.70;35.70
7530;DHT22;3806;52.270;10.544;2023-07-08T09:40:50;34.80;44.80
7530;DHT22;3806;52.270;10.544;2023-07-08T09:43:25;34.80;47.80
7530;DHT22;3806;52.270;10.544;2023-07-08T09:45:51;34.70;54.30
7530;DHT22;3806;52.270;10.544;2023-07-08T09:50:43;34.80;41.60
7530;DHT22;3806;52.270;10.544;2023-07-08T09:53:13;34.80;38.60
7530;DHT22;3806;52.270;10.544;2023-07-08T09:55:39;34.90;37.70
7530;DHT22;3806;52.270;10.544;2023-07-08T09:58:05;35.00;36.60
7530;DHT22;3806;52.270;10.544;2023-07-08T10:00:39;35.10;36.40
7530;DHT22;3806;52.270;10.544;2023-07-08T10:03:12;35.20;36.20
7530;DHT22;3806;52.270;10.544;2023-07-08T10:05:42;35.30;36.90
7530;DHT22;3806;52.270;10.544;2023-07-08T10:08:19;35.30;37.30
7530;DHT22;3806;52.270;10.544;2023-07-08T10:10:47;35.20;34.40
7530;DHT22;3806;52.270;10.544;2023-07-08T10:13:23;35.30;35.60
7530;DHT22;3806;52.270;10.544;2023-07-08T10:15:55;35.30;33.70
7530;DHT22;3806;52.270;10.544;2023-07-08T10:18:28;35.30;35.50
7530;DHT22;3806;52.270;10.544;2023-07-08T10:21:08;35.40;35.20
7530;DHT22;3806;52.270;10.544;2023-07-08T10:23:49;35.40;34.30
7530;DHT22;3806;52.270;10.544;2023-07-08T10:26:28;35.30;31.90
7530;DHT22;3806;52.270;10.544;2023-07-08T10:32:24;35.20;33.00
7530;DHT22;3806;52.270;10.544;2023-07-08T10:35:04;35.30;32.80
7530;DHT22;3806;52.270;10.544;2023-07-08T10:37:52;35.20;33.70
7530;DHT22;3806;52.270;10.544;2023-07-08T10:41:01;35.30;33.70
7530;DHT22;3806;52.270;10.544;2023-07-08T10:43:48;35.50;33.70
7530;DHT22;3806;52.270;10.544;2023-07-08T10:46:32;35.70;32.60
7530;DHT22;3806;52.270;10.544;2023-07-08T10:49:07;35.70;32.40
7530;DHT22;3806;52.270;10.544;2023-07-08T10:57:38;35.70;31.60
7530;DHT22;3806;52.270;10.544;2023-07-08T11:00:23;35.70;31.60
7530;DHT22;3806;52.270;10.544;2023-07-08T11:05:45;35.50;30.70
7530;DHT22;3806;52.270;10.544;2023-07-08T11:10:56;35.40;30.50
7530;DHT22;3806;52.270;10.544;2023-07-08T11:13:26;35.20;31.10
7530;DHT22;3806;52.270;10.544;2023-07-08T11:16:13;35.20;31.60
7530;DHT22;3806;52.270;10.544;2023-07-08T11:19:10;35.20;31.50
7530;DHT22;3806;52.270;10.544;2023-07-08T11:21:47;35.10;31.70
7530;DHT22;3806;52.270;10.544;2023-07-08T11:24:22;35.00;31.10
7530;DHT22;3806;52.270;10.544;2023-07-08T11:26:55;34.80;31.10
7530;DHT22;3806;52.270;10.544;2023-07-08T11:29:34;34.80;32.10
7530;DHT22;3806;52.270;10.544;2023-07-08T11:32:03;34.90;31.80
7530;DHT22;3806;52.270;10.544;2023-07-08T11:34:29;34.90;31.10
7530;DHT22;3806;52.270;10.544;2023-07-08T11:36:57;34.90;32.00
7530;DHT22;3806;52.270;10.544;2023-07-08T11:42:25;35.00;32.10
7530;DHT22;3806;52.270;10.544;2023-07-08T11:44:57;35.00;31.80
7530;DHT22;3806;52.270;10.544;2023-07-08T11:47:39;35.00;31.30
7530;DHT22;3806;52.270;10.544;2023-07-08T11:50:29;35.00;30.60
7530;DHT22;3806;52.270;10.544;2023-07-08T11:53:01;34.70;30.80
7530;DHT22;3806;52.270;10.544;2023-07-08T11:58:23;34.80;32.00
7530;DHT22;3806;52.270;10.544;2023-07-08T12:00:59;34.80;31.20
7530;DHT22;3806;52.270;10.544;2023-07-08T12:04:16;34.70;30.10
7530;DHT22;3806;52.270;10.544;2023-07-08T12:08:54;34.60;31.40
7530;DHT22;3806;52.270;10.544;2023-07-08T12:11:28;34.60;31.40
7530;DHT22;3806;52.270;10.544;2023-07-08T12:13:58;34.50;30.90
7530;DHT22;3806;52.270;10.544;2023-07-08T12:16:25;34.50;30.60
7530;DHT22;3806;52.270;10.544;2023-07-08T12:18:52;34.50;31.00
7530;DHT22;3806;52.270;10.544;2023-07-08T12:21:18;34.40;31.10
7530;DHT22;3806;52.270;10.544;2023-07-08T12:23:47;34.40;31.60
7530;DHT22;3806;52.270;10.544;2023-07-08T12:26:12;34.30;30.70
7530;DHT22;3806;52.270;10.544;2023-07-08T12:28:39;34.30;31.30
7530;DHT22;3806;52.270;10.544;2023-07-08T12:31:34;34.20;30.80
7530;DHT22;3806;52.270;10.544;2023-07-08T12:33:59;34.20;31.20
7530;DHT22;3806;52.270;10.544;2023-07-08T12:36:28;34.20;31.30
7530;DHT22;3806;52.270;10.544;2023-07-08T12:38:56;34.20;30.80
7530;DHT22;3806;52.270;10.544;2023-07-08T12:41:29;34.10;30.20
7530;DHT22;3806;52.270;10.544;2023-07-08T12:43:55;34.10;30.30
7530;DHT22;3806;52.270;10.544;2023-07-08T12:46:22;34.10;30.10
7530;DHT22;3806;52.270;10.544;2023-07-08T12:48:48;34.00;30.40
7530;DHT22;3806;52.270;10.544;2023-07-08T12:51:23;34.00;31.40
7530;DHT22;3806;52.270;10.544;2023-07-08T12:53:50;34.00;29.00
7530;DHT22;3806;52.270;10.544;2023-07-08T12:56:17;33.90;29.30
7530;DHT22;3806;52.270;10.544;2023-07-08T12:58:51;33.90;30.10
7530;DHT22;3806;52.270;10.544;2023-07-08T13:01:22;33.90;29.90
7530;DHT22;3806;52.270;10.544;2023-07-08T13:03:52;33.80;31.00
7530;DHT22;3806;52.270;10.544;2023-07-08T13:06:21;33.80;30.30
7530;DHT22;3806;52.270;10.544;2023-07-08T13:08:48;33.70;30.10
7530;DHT22;3806;52.270;10.544;2023-07-08T13:11:16;33.60;30.60
7530;DHT22;3806;52.270;10.544;2023-07-08T13:13:53;33.60;30.20
7530;DHT22;3806;52.270;10.544;2023-07-08T13:16:21;33.50;30.00
7530;DHT22;3806;52.270;10.544;2023-07-08T13:18:47;33.40;30.10
7530;DHT22;3806;52.270;10.544;2023-07-08T13:21:14;33.50;30.10
7530;DHT22;3806;52.270;10.544;2023-07-08T13:23:41;33.50;30.00
7530;DHT22;3806;52.270;10.544;2023-07-08T13:26:21;33.50;30.50
7530;DHT22;3806;52.270;10.544;2023-07-08T13:28:47;33.50;30.60
7530;DHT22;3806;52.270;10.544;2023-07-08T13:31:22;33.50;30.70
7530;DHT22;3806;52.270;10.544;2023-07-08T13:33:49;33.40;30.10
7530;DHT22;3806;52.270;10.544;2023-07-08T13:36:18;33.40;30.60
7530;DHT22;3806;52.270;10.544;2023-07-08T13:38:44;33.40;29.70
7530;DHT22;3806;52.270;10.544;2023-07-08T13:41:10;33.30;29.10
7530;DHT22;3806;52.270;10.544;2023-07-08T13:43:39;33.20;29.20
7530;DHT22;3806;52.270;10.544;2023-07-08T13:46:24;33.20;29.80
7530;DHT22;3806;52.270;10.544;2023-07-08T13:48:52;33.20;29.90
7530;DHT22;3806;52.270;10.544;2023-07-08T13:51:22;33.10;30.50
7530;DHT22;3806;52.270;10.544;2023-07-08T13:53:56;32.90;29.60
7530;DHT22;3806;52.270;10.544;2023-07-08T13:56:29;32.90;29.20
7530;DHT22;3806;52.270;10.544;2023-07-08T13:59:04;32.80;29.50
7530;DHT22;3806;52.270;10.544;2023-07-08T14:01:32;32.70;31.70
7530;DHT22;3806;52.270;10.544;2023-07-08T14:03:59;32.50;32.20
7530;DHT22;3806;52.270;10.544;2023-07-08T14:06:30;32.50;32.20
7530;DHT22;3806;52.270;10.544;2023-07-08T14:08:57;32.50;32.40
7530;DHT22;3806;52.270;10.544;2023-07-08T14:11:23;32.50;32.60
7530;DHT22;3806;52.270;10.544;2023-07-08T14:13:49;32.50;31.30
7530;DHT22;3806;52.270;10.544;2023-07-08T14:16:25;32.40;30.30
7530;DHT22;3806;52.270;10.544;2023-07-08T14:18:54;32.30;30.90
7530;DHT22;3806;52.270;10.544;2023-07-08T14:21:19;32.30;30.00
7530;DHT22;3806;52.270;10.544;2023-07-08T14:23:45;32.10;30.10
7530;DHT22;3806;52.270;10.544;2023-07-08T14:26:10;32.10;30.90
7530;DHT22;3806;52.270;10.544;2023-07-08T14:28:36;32.10;32.10
7530;DHT22;3806;52.270;10.544;2023-07-08T14:31:02;32.00;31.90
7530;DHT22;3806;52.270;10.544;2023-07-08T14:33:27;31.90;32.20
7530;DHT22;3806;52.270;10.544;2023-07-08T14:35:53;31.90;31.30
7530;DHT22;3806;52.270;10.544;2023-07-08T14:38:18;31.90;31.50
7530;DHT22;3806;52.270;10.544;2023-07-08T14:40:44;31.90;30.10
7530;DHT22;3806;52.270;10.544;2023-07-08T14:43:30;31.90;29.80
7530;DHT22;3806;52.270;10.544;2023-07-08T14:45:57;31.90;31.50
7530;DHT22;3806;52.270;10.544;2023-07-08T14:48:24;31.80;30.00
7530;DHT22;3806;52.270;10.544;2023-07-08T14:50:50;31.90;30.00
7530;DHT22;3806;52.270;10.544;2023-07-08T14:53:16;31.80;31.20
7530;DHT22;3806;52.270;10.544;2023-07-08T14:55:45;31.70;30.00
7530;DHT22;3806;52.270;10.544;2023-07-08T14:58:38;31.70;29.60
7530;DHT22;3806;52.270;10.544;2023-07-08T15:01:08;31.70;28.90
7530;DHT22;3806;52.270;10.544;2023-07-08T15:03:36;31.60;29.80
7530;DHT22;3806;52.270;10.544;2023-07-08T15:06:01;31.60;29.90
7530;DHT22;3806;52.270;10.544;2023-07-08T15:08:28;31.40;31.70
7530;DHT22;3806;52.270;10.544;2023-07-08T15:10:53;31.40;30.70
7530;DHT22;3806;52.270;10.544;2023-07-08T15:13:29;31.30;31.50
7530;DHT22;3806;52.270;10.544;2023-07-08T15:15:55;31.20;32.10
7530;DHT22;3806;52.270;10.544;2023-07-08T15:18:21;31.10;33.50
7530;DHT22;3806;52.270;10.544;2023-07-08T15:20:46;31.10;33.10
7530;DHT22;3806;52.270;10.544;2023-07-08T15:23:12;31.00;32.80
7530;DHT22;3806;52.270;10.544;2023-07-08T15:25:40;30.90;33.10
7530;DHT22;3806;52.270;10.544;2023-07-08T15:28:14;30.90;31.40
7530;DHT22;3806;52.270;10.544;2023-07-08T15:30:40;30.90;31.40
7530;DHT22;3806;52.270;10.544;2023-07-08T15:33:09;30.90;32.00
7530;DHT22;3806;52.270;10.544;2023-07-08T15:35:34;30.80;31.70
7530;DHT22;3806;52.270;10.544;2023-07-08T15:38:00;30.90;30.60
7530;DHT22;3806;52.270;10.544;2023-07-08T15:40:30;30.90;29.80
7530;DHT22;3806;52.270;10.544;2023-07-08T15:42:58;30.80;31.00
7530;DHT22;3806;52.270;10.544;2023-07-08T15:45:26;30.80;32.00
7530;DHT22;3806;52.270;10.544;2023-07-08T15:47:53;30.70;31.50
7530;DHT22;3806;52.270;10.544;2023-07-08T15:50:21;30.80;30.70
7530;DHT22;3806;52.270;10.544;2023-07-08T15:52:47;30.80;30.90
7530;DHT22;3806;52.270;10.544;2023-07-08T15:55:16;30.90;29.40
7530;DHT22;3806;52.270;10.544;2023-07-08T16:00:37;31.00;29.80
7530;DHT22;3806;52.270;10.544;2023-07-08T16:03:09;31.10;29.90
7530;DHT22;3806;52.270;10.544;2023-07-08T16:05:36;31.10;30.40
7530;DHT22;3806;52.270;10.544;2023-07-08T16:08:02;31.10;29.60
7530;DHT22;3806;52.270;10.544;2023-07-08T16:10:29;31.10;29.90
7530;DHT22;3806;52.270;10.544;2023-07-08T16:12:55;31.20;30.00
7530;DHT22;3806;52.270;10.544;2023-07-08T16:15:31;31.20;30.20
7530;DHT22;3806;52.270;10.544;2023-07-08T16:17:57;31.20;30.10
7530;DHT22;3806;52.270;10.544;2023-07-08T16:20:25;31.20;30.70
7530;DHT22;3806;52.270;10.544;2023-07-08T16:22:51;31.20;30.50
7530;DHT22;3806;52.270;10.544;2023-07-08T16:25:19;31.20;30.00
7530;DHT22;3806;52.270;10.544;2023-07-08T16:27:47;31.20;30.00